createdAt,value
2018-02-18T00:01:59.570Z,27.20
2018-02-18T00:04:27.216Z,34.43
2018-02-18T00:06:54.891Z,37.57
2018-02-18T00:09:22.556Z,40.17
2018-02-18T00:11:50.248Z,38.17
2018-02-18T00:14:21.339Z,37.23
2018-02-18T00:16:49.026Z,38.43
2018-02-18T00:19:16.687Z,44.60
2018-02-18T00:21:45.121Z,34.30
2018-02-18T00:24:12.789Z,35.13
2018-02-18T00:26:40.420Z,32.73
2018-02-18T00:29:08.095Z,30.47
2018-02-18T00:31:35.762Z,29.83
2018-02-18T00:34:03.409Z,31.37
2018-02-18T00:36:31.122Z,31.17
2018-02-18T00:38:58.811Z,28.50
2018-02-18T00:41:26.476Z,28.67
2018-02-18T00:43:54.124Z,31.43
2018-02-18T00:46:22.563Z,32.03
2018-02-18T00:48:50.218Z,28.30
2018-02-18T00:51:17.857Z,35.93
2018-02-18T00:53:45.499Z,33.27
2018-02-18T00:56:13.160Z,31.53
2018-02-18T00:58:40.823Z,35.40
2018-02-18T01:01:08.523Z,33.50
2018-02-18T01:03:36.190Z,31.77
2018-02-18T01:06:03.883Z,26.73
2018-02-18T01:08:32.285Z,35.13
2018-02-18T01:11:00.777Z,29.40
2018-02-18T01:13:28.497Z,33.13
2018-02-18T01:15:56.906Z,30.87
2018-02-18T01:18:24.568Z,35.93
2018-02-18T01:20:52.242Z,31.30
2018-02-18T01:23:19.915Z,30.23
2018-02-18T01:25:49.369Z,26.67
2018-02-18T01:28:17.881Z,32.60
2018-02-18T01:30:45.595Z,29.43
2018-02-18T01:33:13.258Z,32.23
2018-02-18T01:35:40.924Z,26.83
2018-02-18T01:38:09.400Z,32.33
2018-02-18T01:40:37.054Z,29.50
2018-02-18T01:43:04.712Z,29.83
2018-02-18T01:45:32.387Z,28.57
2018-02-18T01:48:00.891Z,29.47
2018-02-18T01:50:36.551Z,32.07
2018-02-18T01:53:04.295Z,31.03
2018-02-18T01:55:31.963Z,29.17
2018-02-18T01:57:59.626Z,31.93
2018-02-18T02:00:27.287Z,28.10
2018-02-18T02:02:54.947Z,31.00
2018-02-18T02:05:22.614Z,34.47
2018-02-18T02:07:50.272Z,28.23
2018-02-18T02:10:17.943Z,29.50
2018-02-18T02:12:45.601Z,29.40
2018-02-18T02:15:13.256Z,26.40
2018-02-18T02:17:40.913Z,30.57
2018-02-18T02:20:08.587Z,32.73
2018-02-18T02:22:36.252Z,35.87
2018-02-18T02:25:03.910Z,38.37
2018-02-18T02:27:31.562Z,34.43
2018-02-18T02:29:59.230Z,33.40
2018-02-18T02:32:26.876Z,31.97
2018-02-18T02:34:54.529Z,34.67
2018-02-18T02:37:22.276Z,33.17
2018-02-18T02:39:50.716Z,33.50
2018-02-18T02:42:18.412Z,41.30
2018-02-18T02:44:46.820Z,36.53
2018-02-18T02:47:14.506Z,34.43
2018-02-18T02:49:42.957Z,34.23
2018-02-18T02:52:10.656Z,35.70
2018-02-18T02:54:38.317Z,36.17
2018-02-18T02:57:05.971Z,33.77
2018-02-18T02:59:33.613Z,39.33
2018-02-18T03:02:01.470Z,39.07
2018-02-18T03:04:29.128Z,36.30
2018-02-18T03:09:26.659Z,39.63
2018-02-18T03:11:54.330Z,39.30
2018-02-18T03:14:22.784Z,35.40
2018-02-18T03:16:50.552Z,38.50
2018-02-18T03:19:18.276Z,37.07
2018-02-18T03:21:46.002Z,33.30
2018-02-18T03:24:14.529Z,42.77
2018-02-18T03:26:42.262Z,36.57
2018-02-18T03:29:10.038Z,31.67
2018-02-18T03:31:37.764Z,35.67
2018-02-18T03:34:06.274Z,38.53
2018-02-18T03:36:33.998Z,37.23
2018-02-18T03:39:01.742Z,36.50
2018-02-18T03:41:29.472Z,38.20
2018-02-18T03:43:57.224Z,36.77
2018-02-18T03:46:24.960Z,38.93
2018-02-18T03:48:53.471Z,39.30
2018-02-18T03:51:21.197Z,44.23
2018-02-18T03:53:49.678Z,38.27
2018-02-18T03:56:18.188Z,42.53
2018-02-18T03:58:45.928Z,39.90
2018-02-18T04:01:14.432Z,42.30
2018-02-18T04:03:42.221Z,36.70
2018-02-18T04:06:09.996Z,39.20
2018-02-18T04:08:37.741Z,40.83
2018-02-18T04:11:05.693Z,40.40
2018-02-18T04:13:33.430Z,39.40
2018-02-18T04:16:01.899Z,41.47
2018-02-18T04:18:30.436Z,40.13
2018-02-18T04:20:58.177Z,41.33
2018-02-18T04:23:25.932Z,42.33
2018-02-18T04:25:53.703Z,38.97
2018-02-18T04:28:21.425Z,39.53
2018-02-18T04:30:49.148Z,41.43
2018-02-18T04:33:16.856Z,48.63
2018-02-18T04:35:45.356Z,46.03
2018-02-18T04:38:13.093Z,42.43
2018-02-18T04:40:41.579Z,43.30
2018-02-18T04:43:10.082Z,42.80
2018-02-18T04:45:37.812Z,41.93
2018-02-18T04:48:06.295Z,46.10
2018-02-18T04:50:34.829Z,42.20
2018-02-18T04:53:02.575Z,40.70
2018-02-18T04:55:30.307Z,38.27
2018-02-18T04:57:58.851Z,38.57
2018-02-18T05:00:26.591Z,39.17
2018-02-18T05:02:54.339Z,35.33
2018-02-18T05:05:22.623Z,38.70
2018-02-18T05:07:50.375Z,38.07
2018-02-18T05:10:18.120Z,40.07
2018-02-18T05:12:46.596Z,38.07
2018-02-18T05:15:15.125Z,40.10
2018-02-18T05:17:42.904Z,37.97
2018-02-18T05:20:10.628Z,39.63
2018-02-18T05:22:38.327Z,43.20
2018-02-18T05:25:06.069Z,41.73
2018-02-18T05:27:33.788Z,42.30
2018-02-18T05:30:02.288Z,41.40
2018-02-18T05:32:30.066Z,42.93
2018-02-18T05:34:57.810Z,42.37
2018-02-18T05:37:25.522Z,43.33
2018-02-18T05:39:53.254Z,43.33
2018-02-18T05:42:20.968Z,40.33
2018-02-18T05:44:49.467Z,38.77
2018-02-18T05:47:17.963Z,42.13
2018-02-18T05:49:45.674Z,42.20
2018-02-18T05:52:13.392Z,41.77
2018-02-18T05:54:41.132Z,46.30
2018-02-18T05:57:09.734Z,42.27
2018-02-18T05:59:37.466Z,43.33
2018-02-18T06:02:05.975Z,41.57
2018-02-18T06:04:33.690Z,43.53
2018-02-18T06:07:01.456Z,48.23
2018-02-18T06:09:29.208Z,42.60
2018-02-18T06:11:56.980Z,44.47
2018-02-18T06:14:24.711Z,43.57
2018-02-18T06:16:52.433Z,45.40
2018-02-18T06:19:20.922Z,41.33
2018-02-18T06:21:48.668Z,39.93
2018-02-18T06:24:17.186Z,43.20
2018-02-18T06:26:44.935Z,42.47
2018-02-18T06:29:12.675Z,45.37
2018-02-18T06:31:41.156Z,43.43
2018-02-18T06:34:09.655Z,42.50
2018-02-18T06:36:37.397Z,45.97
2018-02-18T06:39:05.930Z,47.20
2018-02-18T06:41:33.722Z,41.70
2018-02-18T06:44:01.449Z,43.73
2018-02-18T06:46:29.170Z,41.63
2018-02-18T06:48:57.677Z,41.10
2018-02-18T06:51:25.434Z,48.70
2018-02-18T06:53:53.227Z,48.23
2018-02-18T06:56:20.961Z,52.60
2018-02-18T06:58:48.700Z,49.20
2018-02-18T07:01:17.239Z,49.87
2018-02-18T07:03:45.093Z,49.57
2018-02-18T07:06:12.831Z,45.33
2018-02-18T07:08:40.561Z,44.03
2018-02-18T07:11:09.060Z,43.27
2018-02-18T07:13:36.780Z,44.17
2018-02-18T07:16:04.517Z,42.03
2018-02-18T07:18:32.289Z,45.70
2018-02-18T07:21:00.038Z,43.23
2018-02-18T07:23:27.768Z,42.63
2018-02-18T07:25:56.240Z,46.10
2018-02-18T07:28:24.759Z,41.07
2018-02-18T07:30:52.480Z,43.40
2018-02-18T07:33:20.966Z,44.20
2018-02-18T07:35:49.465Z,40.70
2018-02-18T07:38:17.200Z,44.40
2018-02-18T07:40:45.680Z,40.17
2018-02-18T07:43:14.190Z,46.17
2018-02-18T07:45:41.918Z,43.83
2018-02-18T07:48:10.411Z,46.30
2018-02-18T07:50:38.900Z,45.87
2018-02-18T07:53:06.632Z,43.47
2018-02-18T07:55:35.173Z,43.60
2018-02-18T07:58:02.882Z,41.10
2018-02-18T08:00:31.413Z,43.43
2018-02-18T08:02:59.141Z,45.80
2018-02-18T08:05:27.683Z,42.60
2018-02-18T08:07:55.436Z,40.10
2018-02-18T08:10:23.146Z,43.07
2018-02-18T08:12:51.656Z,42.60
2018-02-18T08:15:19.404Z,44.63
2018-02-18T08:17:47.139Z,43.73
2018-02-18T08:20:15.640Z,42.80
2018-02-18T08:22:43.395Z,43.87
2018-02-18T08:25:11.875Z,47.23
2018-02-18T08:27:40.351Z,44.70
2018-02-18T08:30:08.865Z,45.20
2018-02-18T08:32:36.651Z,43.77
2018-02-18T08:35:04.363Z,45.63
2018-02-18T08:37:32.089Z,48.47
2018-02-18T08:39:59.831Z,48.30
2018-02-18T08:42:27.574Z,48.47
2018-02-18T08:44:55.319Z,43.50
2018-02-18T08:47:23.053Z,46.47
2018-02-18T08:49:51.562Z,43.83
2018-02-18T08:52:19.330Z,45.53
2018-02-18T08:54:47.065Z,46.50
2018-02-18T08:57:15.585Z,49.80
2018-02-18T08:59:43.370Z,48.97
2018-02-18T09:02:11.100Z,51.67
2018-02-18T09:04:38.823Z,46.23
2018-02-18T09:07:06.674Z,51.60
2018-02-18T09:09:34.393Z,48.40
2018-02-18T09:12:02.188Z,50.40
2018-02-18T09:14:29.942Z,47.00
2018-02-18T09:16:57.681Z,46.50
2018-02-18T09:19:25.440Z,50.63
2018-02-18T09:21:53.160Z,47.70
2018-02-18T09:24:22.368Z,51.80
2018-02-18T09:26:51.055Z,51.57
2018-02-18T09:29:19.564Z,55.77
2018-02-18T09:31:47.326Z,52.93
2018-02-18T09:34:15.069Z,53.43
2018-02-18T09:36:43.634Z,55.10
2018-02-18T09:39:12.134Z,54.33
2018-02-18T09:41:40.619Z,54.73
2018-02-18T09:44:08.323Z,61.10
2018-02-18T09:46:36.069Z,58.80
2018-02-18T09:49:04.471Z,61.57
2018-02-18T09:51:32.275Z,65.37
2018-02-18T09:54:00.763Z,65.03
2018-02-18T09:56:28.497Z,62.90
2018-02-18T09:58:56.380Z,60.30
2018-02-18T10:01:24.876Z,58.60
2018-02-18T10:03:52.610Z,60.73
2018-02-18T10:06:21.114Z,65.77
2018-02-18T10:08:49.115Z,63.80
2018-02-18T10:11:16.844Z,58.07
2018-02-18T10:13:44.566Z,69.63
2018-02-18T10:16:12.287Z,63.90
2018-02-18T10:18:40.039Z,60.37
2018-02-18T10:21:07.764Z,60.50
2018-02-18T10:23:35.526Z,61.00
2018-02-18T10:26:03.253Z,66.13
2018-02-18T10:28:30.990Z,65.10
2018-02-18T10:30:58.706Z,63.83
2018-02-18T10:33:26.440Z,57.00
2018-02-18T10:35:54.149Z,59.77
2018-02-18T10:38:22.666Z,59.87
2018-02-18T10:40:50.435Z,62.03
2018-02-18T10:43:18.168Z,58.47
2018-02-18T10:45:45.932Z,52.00
2018-02-18T10:48:13.764Z,55.30
2018-02-18T10:50:41.468Z,58.37
2018-02-18T10:53:09.213Z,60.57
2018-02-18T10:55:37.703Z,62.57
2018-02-18T10:58:05.491Z,64.70
2018-02-18T11:00:33.229Z,62.87
2018-02-18T11:03:01.109Z,63.27
2018-02-18T11:05:28.828Z,60.70
2018-02-18T11:07:56.551Z,59.77
2018-02-18T11:10:24.285Z,63.17
2018-02-18T11:12:52.003Z,62.17
2018-02-18T11:15:19.752Z,64.77
2018-02-18T11:17:47.483Z,62.87
2018-02-18T11:20:15.241Z,63.93
2018-02-18T11:23:13.209Z,59.10
2018-02-18T11:25:40.969Z,59.23
2018-02-18T11:28:08.707Z,60.90
2018-02-18T11:30:37.205Z,60.57
2018-02-18T11:33:04.916Z,63.20
2018-02-18T11:35:32.666Z,60.27
2018-02-18T11:38:00.466Z,68.90
2018-02-18T11:43:25.564Z,61.40
2018-02-18T11:45:53.315Z,64.23
2018-02-18T11:48:21.816Z,57.03
2018-02-18T11:50:49.524Z,63.73
2018-02-18T11:53:17.317Z,68.17
2018-02-18T11:55:45.105Z,59.80
2018-02-18T11:58:13.624Z,64.00
2018-02-18T12:00:41.412Z,60.67
2018-02-18T12:03:09.184Z,64.20
2018-02-18T12:05:36.949Z,72.10
2018-02-18T12:08:04.688Z,76.33
2018-02-18T12:10:32.499Z,78.00
2018-02-18T12:13:00.227Z,72.47
2018-02-18T12:15:27.946Z,69.97
2018-02-18T12:17:56.428Z,69.60
2018-02-18T12:20:24.902Z,70.80
2018-02-18T12:22:53.398Z,68.53
2018-02-18T12:25:21.150Z,58.93
2018-02-18T12:27:49.888Z,70.23
2018-02-18T12:30:18.462Z,58.03
2018-02-18T12:32:46.199Z,61.97
2018-02-18T12:35:13.948Z,60.27
2018-02-18T12:37:42.478Z,64.97
2018-02-18T12:40:10.196Z,70.47
2018-02-18T12:42:38.686Z,65.57
2018-02-18T12:45:07.360Z,68.63
2018-02-18T12:47:35.862Z,69.53
2018-02-18T12:50:03.567Z,70.10
2018-02-18T12:52:31.215Z,62.47
2018-02-18T12:54:58.874Z,67.87
2018-02-18T12:57:26.582Z,65.80
2018-02-18T12:59:54.228Z,69.50
2018-02-18T13:02:22.675Z,70.97
2018-02-18T13:04:50.334Z,67.67
2018-02-18T13:07:18.028Z,66.13
2018-02-18T13:09:46.461Z,71.67
2018-02-18T13:12:14.118Z,62.87
2018-02-18T13:14:41.823Z,71.03
2018-02-18T13:17:09.463Z,68.67
2018-02-18T13:19:37.110Z,72.27
2018-02-18T13:22:04.779Z,74.43
2018-02-18T13:24:32.425Z,68.83
2018-02-18T13:27:00.082Z,72.60
2018-02-18T13:29:27.728Z,69.73
2018-02-18T13:32:15.400Z,65.17
2018-02-18T13:34:43.071Z,67.50
2018-02-18T13:37:10.735Z,69.47
2018-02-18T13:39:38.383Z,62.80
2018-02-18T13:42:06.050Z,64.87
2018-02-18T13:44:33.718Z,60.43
2018-02-18T13:47:02.160Z,65.07
2018-02-18T13:49:29.859Z,64.63
2018-02-18T13:51:57.523Z,64.10
2018-02-18T13:54:25.935Z,65.60
2018-02-18T13:56:53.587Z,57.80
2018-02-18T13:59:21.244Z,58.40
2018-02-18T14:01:48.890Z,60.20
2018-02-18T14:04:17.316Z,55.07
2018-02-18T14:06:44.995Z,60.37
2018-02-18T14:09:13.435Z,54.33
2018-02-18T14:11:41.100Z,57.43
2018-02-18T14:14:08.792Z,54.97
2018-02-18T14:16:36.474Z,52.87
2018-02-18T14:19:04.239Z,57.53
2018-02-18T14:21:32.664Z,55.27
2018-02-18T14:24:00.346Z,56.40
2018-02-18T14:26:28.001Z,57.10
2018-02-18T14:28:55.662Z,53.40
2018-02-18T14:31:23.339Z,56.70
2018-02-18T14:33:50.984Z,57.97
2018-02-18T14:36:18.641Z,57.17
2018-02-18T14:38:46.280Z,50.07
2018-02-18T14:41:25.745Z,49.10
2018-02-18T14:44:05.303Z,51.90
2018-02-18T14:46:58.585Z,44.50
2018-02-18T14:49:38.832Z,46.40
2018-02-18T14:52:18.380Z,46.33
2018-02-18T14:55:11.331Z,48.40
2018-02-18T14:57:39.746Z,47.17
2018-02-18T15:00:07.423Z,48.60
2018-02-18T15:02:35.065Z,48.60
2018-02-18T15:05:02.727Z,44.53
2018-02-18T15:07:30.402Z,44.43
2018-02-18T15:09:58.044Z,44.93
2018-02-18T15:12:25.713Z,48.20
2018-02-18T15:14:53.366Z,46.77
2018-02-18T15:17:21.015Z,45.00
2018-02-18T15:19:48.670Z,46.27
2018-02-18T15:22:17.089Z,40.47
2018-02-18T15:24:44.756Z,44.87
2018-02-18T15:27:12.425Z,47.90
2018-02-18T15:29:40.125Z,43.40
2018-02-18T15:32:08.558Z,41.83
2018-02-18T15:34:36.314Z,44.50
2018-02-18T15:37:03.963Z,40.23
2018-02-18T15:39:31.620Z,43.00
2018-02-18T15:41:59.274Z,40.43
2018-02-18T15:44:26.935Z,40.43
2018-02-18T15:46:54.639Z,39.87
2018-02-18T15:49:22.302Z,39.77
2018-02-18T15:51:50.145Z,40.47
2018-02-18T15:54:17.832Z,40.80
2018-02-18T15:56:45.503Z,40.27
2018-02-18T15:59:13.926Z,35.00
2018-02-18T16:01:41.583Z,38.60
2018-02-18T16:04:09.230Z,40.13
2018-02-18T16:06:36.923Z,36.67
2018-02-18T16:09:04.658Z,35.53
2018-02-18T16:11:32.325Z,32.03
2018-02-18T16:13:59.984Z,34.03
2018-02-18T16:16:27.670Z,31.57
2018-02-18T16:18:55.943Z,28.50
2018-02-18T16:21:23.659Z,28.70
2018-02-18T16:23:52.081Z,24.93
2018-02-18T16:26:19.760Z,21.50
2018-02-18T16:28:47.419Z,22.67
2018-02-18T16:31:15.095Z,18.80
2018-02-18T16:33:42.749Z,20.60
2018-02-18T16:36:10.407Z,20.27
2018-02-18T16:38:38.098Z,18.10
2018-02-18T16:41:06.660Z,15.93
2018-02-18T16:43:34.339Z,14.80
2018-02-18T16:46:02.760Z,13.93
2018-02-18T16:48:30.430Z,14.37
2018-02-18T16:50:58.693Z,14.63
2018-02-18T16:53:26.379Z,12.23
2018-02-18T16:55:54.024Z,10.57
2018-02-18T16:58:21.667Z,10.67
2018-02-18T17:00:49.305Z,11.13
2018-02-18T17:03:17.798Z,12.03
2018-02-18T17:05:45.438Z,8.73
2018-02-18T17:08:13.875Z,10.23
2018-02-18T17:10:41.555Z,5.77
2018-02-18T17:13:09.197Z,5.83
2018-02-18T17:15:36.841Z,5.43
2018-02-18T17:18:04.546Z,3.97
2018-02-18T17:20:32.176Z,5.93
2018-02-18T17:22:59.880Z,4.73
2018-02-18T17:25:28.295Z,4.37
2018-02-18T17:27:55.930Z,7.37
2018-02-18T17:30:23.583Z,7.50
2018-02-18T17:32:52.010Z,3.90
2018-02-18T17:35:19.651Z,4.03
2018-02-18T17:37:47.299Z,5.30
2018-02-18T17:40:14.940Z,6.63
2018-02-18T17:42:43.348Z,7.47
2018-02-18T17:45:11.000Z,5.00
2018-02-18T17:47:38.645Z,5.80
2018-02-18T17:50:06.295Z,5.50
2018-02-18T17:52:34.714Z,6.43
2018-02-18T17:55:02.412Z,3.83
2018-02-18T17:57:30.070Z,4.00
2018-02-18T17:59:57.735Z,8.47
2018-02-18T18:02:25.424Z,5.03
2018-02-18T18:04:53.826Z,8.53
2018-02-18T18:07:21.480Z,5.40
2018-02-18T18:09:49.117Z,5.53
2018-02-18T18:12:17.536Z,5.17
2018-02-18T18:14:45.186Z,4.50
2018-02-18T18:17:12.821Z,4.83
2018-02-18T18:19:41.239Z,9.00
2018-02-18T18:22:08.902Z,4.53
2018-02-18T18:24:36.619Z,4.50
2018-02-18T18:27:05.035Z,5.33
2018-02-18T18:29:32.704Z,4.97
2018-02-18T18:32:00.381Z,4.13
2018-02-18T18:34:28.049Z,6.20
2018-02-18T18:36:55.680Z,7.10
2018-02-18T18:39:23.341Z,4.53
2018-02-18T18:41:50.982Z,6.43
2018-02-18T18:44:18.650Z,8.77
2018-02-18T18:46:46.332Z,5.47
2018-02-18T18:49:13.993Z,6.67
2018-02-18T18:51:41.636Z,4.43
2018-02-18T18:54:09.316Z,4.20
2018-02-18T18:56:36.971Z,3.67
2018-02-18T18:59:04.631Z,9.23
2018-02-18T19:01:32.279Z,6.23
2018-02-18T19:03:59.928Z,6.40
2018-02-18T19:06:27.600Z,5.00
2018-02-18T19:08:55.244Z,8.07
2018-02-18T19:11:22.919Z,6.07
2018-02-18T19:13:51.210Z,6.77
2018-02-18T19:16:18.850Z,8.97
2018-02-18T19:18:46.520Z,8.83
2018-02-18T19:21:14.174Z,5.33
2018-02-18T19:23:41.827Z,6.83
2018-02-18T19:26:09.464Z,5.23
2018-02-18T19:28:37.887Z,4.87
2018-02-18T19:31:05.540Z,4.70
2018-02-18T19:33:33.205Z,8.93
2018-02-18T19:36:00.859Z,8.47
2018-02-18T19:38:28.520Z,5.93
2018-02-18T19:40:56.241Z,4.63
2018-02-18T19:43:24.786Z,5.23
2018-02-18T19:45:53.241Z,6.13
2018-02-18T19:48:20.933Z,5.90
2018-02-18T19:50:48.603Z,4.77
2018-02-18T19:53:16.240Z,6.40
2018-02-18T19:55:43.906Z,5.10
2018-02-18T19:58:11.549Z,6.13
2018-02-18T20:00:39.190Z,6.00
2018-02-18T20:03:06.832Z,3.43
2018-02-18T20:05:35.242Z,3.90
2018-02-18T20:08:02.891Z,5.37
2018-02-18T20:10:31.483Z,3.90
2018-02-18T20:12:59.152Z,8.33
2018-02-18T20:15:26.803Z,7.20
2018-02-18T20:17:54.466Z,5.10
2018-02-18T20:20:22.137Z,3.63
2018-02-18T20:22:49.788Z,5.83
2018-02-18T20:25:17.749Z,5.40
2018-02-18T20:27:45.388Z,5.37
2018-02-18T20:30:13.056Z,4.13
2018-02-18T20:32:40.763Z,5.03
2018-02-18T20:35:08.424Z,5.57
2018-02-18T20:37:36.064Z,3.70
2018-02-18T20:40:04.563Z,4.40
2018-02-18T20:42:32.237Z,9.53
2018-02-18T20:45:00.047Z,6.43
2018-02-18T20:47:27.713Z,5.70
2018-02-18T20:49:55.376Z,5.53
2018-02-18T20:52:23.036Z,5.70
2018-02-18T20:54:50.995Z,5.70
2018-02-18T20:57:18.748Z,5.47
2018-02-18T20:59:46.407Z,6.17
2018-02-18T21:02:16.506Z,4.97
2018-02-18T21:04:44.966Z,6.70
2018-02-18T21:07:12.619Z,4.20
2018-02-18T21:09:41.147Z,6.20
2018-02-18T21:12:08.834Z,5.90
2018-02-18T21:14:36.531Z,6.33
2018-02-18T21:17:04.315Z,9.33
2018-02-18T21:19:32.759Z,5.97
2018-02-18T21:22:01.212Z,7.33
2018-02-18T21:24:28.861Z,6.13
2018-02-18T21:26:56.539Z,7.77
2018-02-18T21:29:24.856Z,6.30
2018-02-18T21:31:52.555Z,4.70
2018-02-18T21:34:20.966Z,8.77
2018-02-18T21:36:48.619Z,6.53
2018-02-18T21:39:16.284Z,10.27
2018-02-18T21:41:44.833Z,6.87
2018-02-18T21:44:12.500Z,10.43
2018-02-18T21:46:40.136Z,7.47
2018-02-18T21:49:08.546Z,7.53
2018-02-18T21:51:36.188Z,10.10
2018-02-18T21:54:03.848Z,5.97
2018-02-18T21:56:32.277Z,10.70
2018-02-18T21:58:59.926Z,8.13
2018-02-18T22:01:27.654Z,6.40
2018-02-18T22:03:55.338Z,8.60
2018-02-18T22:06:23.003Z,7.33
2018-02-18T22:08:50.703Z,10.17
2018-02-18T22:11:19.163Z,7.43
2018-02-18T22:13:46.913Z,7.20
2018-02-18T22:16:14.587Z,12.17
2018-02-18T22:18:42.228Z,6.73
2018-02-18T22:21:09.887Z,6.80
2018-02-18T22:23:37.531Z,8.07
2018-02-18T22:26:05.200Z,6.00
2018-02-18T22:28:32.873Z,5.80
2018-02-18T22:31:00.535Z,9.40
2018-02-18T22:33:28.171Z,8.47
2018-02-18T22:35:55.856Z,6.83
2018-02-18T22:38:23.504Z,9.07
2018-02-18T22:40:51.209Z,8.67
2018-02-18T22:43:18.885Z,7.87
2018-02-18T22:45:47.296Z,5.17
2018-02-18T22:48:14.947Z,9.90
2018-02-18T22:50:42.629Z,7.67
2018-02-18T22:53:10.275Z,5.97
2018-02-18T22:55:37.915Z,6.70
2018-02-18T22:58:06.333Z,8.90
2018-02-18T23:00:33.997Z,9.17
2018-02-18T23:03:01.641Z,9.20
2018-02-18T23:05:34.858Z,7.03
2018-02-18T23:08:02.500Z,7.40
2018-02-18T23:10:30.140Z,8.67
2018-02-18T23:12:57.778Z,6.80
2018-02-18T23:15:26.207Z,8.43
2018-02-18T23:17:53.888Z,9.73
2018-02-18T23:20:21.559Z,7.53
2018-02-18T23:22:49.204Z,9.27
2018-02-18T23:25:16.850Z,8.77
2018-02-18T23:27:44.501Z,6.43
2018-02-18T23:30:12.137Z,11.30
2018-02-18T23:32:39.766Z,5.80
2018-02-18T23:35:07.441Z,8.67
2018-02-18T23:37:35.843Z,6.23
2018-02-18T23:40:03.518Z,5.97
2018-02-18T23:42:31.160Z,6.83
2018-02-18T23:44:58.824Z,8.43
2018-02-18T23:47:27.232Z,7.87
2018-02-18T23:49:55.314Z,9.30
2018-02-18T23:52:22.963Z,8.33
2018-02-18T23:54:50.628Z,8.10
2018-02-18T23:57:18.279Z,7.00
2018-02-18T23:59:45.949Z,5.60
